createdAt,value
2024-05-09T00:01:54.670Z,16.93
2024-05-09T00:04:25.311Z,16.87
2024-05-09T00:06:55.771Z,17.63
2024-05-09T00:09:26.206Z,18.13
2024-05-09T00:11:59.311Z,18.53
2024-05-09T00:14:30.363Z,18.37
2024-05-09T00:17:00.911Z,18.67
2024-05-09T00:19:31.746Z,19.73
2024-05-09T00:22:02.451Z,20.43
2024-05-09T00:24:32.875Z,22.20
2024-05-09T00:27:06.093Z,22.90
2024-05-09T00:29:36.617Z,22.30
2024-05-09T00:32:07.447Z,24.83
2024-05-09T00:34:38.015Z,24.07
2024-05-09T00:37:08.475Z,23.67
2024-05-09T00:39:38.939Z,23.77
2024-05-09T00:42:12.074Z,24.77
2024-05-09T00:44:42.930Z,25.27
2024-05-09T00:47:13.626Z,25.73
2024-05-09T00:49:44.723Z,27.93
2024-05-09T00:52:15.522Z,29.00
2024-05-09T00:54:46.009Z,30.47
2024-05-09T00:57:20.356Z,30.20
2024-05-09T00:59:51.034Z,32.47
2024-05-09T01:02:21.507Z,32.03
2024-05-09T01:04:53.543Z,31.73
2024-05-09T01:07:24.000Z,33.17
2024-05-09T01:09:54.428Z,35.93
2024-05-09T01:12:27.569Z,34.83
2024-05-09T01:14:58.066Z,34.73
2024-05-09T01:17:29.323Z,34.07
2024-05-09T01:19:59.887Z,33.43
2024-05-09T01:22:32.541Z,33.00
2024-05-09T01:25:05.814Z,34.43
2024-05-09T01:27:36.203Z,34.53
2024-05-09T01:30:09.564Z,33.13
2024-05-09T01:32:45.183Z,33.90
2024-05-09T01:35:15.774Z,34.23
2024-05-09T01:37:46.195Z,33.17
2024-05-09T01:40:25.303Z,34.03
2024-05-09T01:43:04.330Z,33.10
2024-05-09T01:45:34.808Z,32.97
2024-05-09T01:48:05.580Z,33.37
2024-05-09T01:50:40.883Z,35.60
2024-05-09T01:53:14.472Z,35.93
2024-05-09T01:55:48.201Z,35.83
2024-05-09T01:58:18.543Z,36.27
2024-05-09T02:00:48.979Z,37.30
2024-05-09T02:03:19.884Z,35.10
2024-05-09T02:05:51.142Z,36.23
2024-05-09T02:08:22.845Z,37.50
2024-05-09T02:10:55.955Z,35.57
2024-05-09T02:13:26.355Z,35.03
2024-05-09T02:15:56.773Z,34.37
2024-05-09T02:18:27.207Z,36.23
2024-05-09T02:20:57.764Z,35.13
2024-05-09T02:23:28.217Z,34.63
2024-05-09T02:26:01.270Z,34.47
2024-05-09T02:28:31.677Z,33.17
2024-05-09T02:31:02.077Z,34.53
2024-05-09T02:33:32.795Z,33.83
2024-05-09T02:36:03.448Z,35.27
2024-05-09T02:38:31.245Z,36.47
2024-05-09T02:41:04.369Z,33.90
2024-05-09T02:43:32.396Z,34.77
2024-05-09T02:46:02.752Z,34.57
2024-05-09T02:48:30.538Z,33.83
2024-05-09T02:51:01.031Z,36.23
2024-05-09T02:53:28.837Z,35.83
2024-05-09T02:55:59.202Z,35.63
2024-05-09T02:58:29.614Z,34.67
2024-05-09T03:01:00.006Z,35.97
2024-05-09T03:03:27.915Z,36.50
2024-05-09T03:05:58.411Z,37.33
2024-05-09T03:08:28.035Z,35.27
2024-05-09T03:10:58.390Z,36.00
2024-05-09T03:13:28.831Z,35.97
2024-05-09T03:15:59.175Z,36.83
2024-05-09T03:18:26.978Z,35.93
2024-05-09T03:20:57.477Z,36.40
2024-05-09T03:23:25.454Z,36.10
2024-05-09T03:25:56.005Z,34.83
2024-05-09T03:28:23.730Z,34.17
2024-05-09T03:30:56.734Z,33.53
2024-05-09T03:33:24.727Z,33.43
2024-05-09T03:35:55.303Z,34.17
2024-05-09T03:38:25.774Z,34.53
2024-05-09T03:40:56.261Z,32.43
2024-05-09T03:43:26.980Z,31.97
2024-05-09T03:45:57.367Z,33.63
2024-05-09T03:48:27.853Z,33.40
2024-05-09T03:50:55.736Z,34.47
2024-05-09T03:53:26.988Z,33.90
2024-05-09T03:55:54.882Z,32.90
2024-05-09T03:58:25.339Z,33.30
2024-05-09T04:00:53.082Z,35.13
2024-05-09T04:03:26.623Z,32.00
2024-05-09T04:05:54.592Z,32.50
2024-05-09T04:08:25.129Z,31.47
2024-05-09T04:10:52.935Z,29.43
2024-05-09T04:13:23.343Z,29.30
2024-05-09T04:15:51.088Z,29.87
2024-05-09T04:18:21.622Z,29.80
2024-05-09T04:20:52.092Z,32.00
2024-05-09T04:23:22.556Z,30.83
2024-05-09T04:25:50.408Z,31.90
2024-05-09T04:28:23.921Z,29.70
2024-05-09T04:30:51.696Z,31.93
2024-05-09T04:33:22.619Z,33.57
2024-05-09T04:35:53.339Z,31.97
2024-05-09T04:38:23.912Z,31.83
2024-05-09T04:40:51.680Z,31.97
2024-05-09T04:43:22.325Z,31.30
2024-05-09T04:45:51.838Z,30.23
2024-05-09T04:48:22.360Z,33.13
2024-05-09T04:50:52.852Z,32.77
2024-05-09T04:53:23.466Z,30.63
2024-05-09T04:55:51.370Z,30.93
2024-05-09T04:58:22.366Z,30.30
2024-05-09T05:00:50.194Z,32.13
2024-05-09T05:03:20.879Z,33.00
2024-05-09T05:05:48.842Z,33.23
2024-05-09T05:08:22.156Z,32.10
2024-05-09T05:10:50.248Z,31.27
2024-05-09T05:13:24.580Z,31.60
2024-05-09T05:15:57.227Z,32.10
2024-05-09T05:18:29.431Z,31.93
2024-05-09T05:20:58.146Z,32.60
2024-05-09T05:23:31.443Z,30.10
2024-05-09T05:25:59.285Z,31.87
2024-05-09T05:28:29.627Z,31.13
2024-05-09T05:30:57.348Z,30.90
2024-05-09T05:33:27.987Z,32.17
2024-05-09T05:35:57.372Z,31.30
2024-05-09T05:38:30.457Z,31.43
2024-05-09T05:40:58.274Z,30.53
2024-05-09T05:43:29.716Z,32.73
2024-05-09T05:45:57.504Z,32.27
2024-05-09T05:48:27.956Z,34.10
2024-05-09T05:50:55.739Z,34.57
2024-05-09T05:53:26.244Z,35.17
2024-05-09T05:55:56.641Z,36.17
2024-05-09T05:58:27.029Z,36.33
2024-05-09T06:00:54.803Z,37.37
2024-05-09T06:03:25.431Z,41.63
2024-05-09T06:05:53.331Z,41.53
2024-05-09T06:08:25.181Z,40.27
2024-05-09T06:10:57.513Z,40.77
2024-05-09T06:13:27.858Z,37.83
2024-05-09T06:15:55.573Z,41.13
2024-05-09T06:18:26.232Z,42.13
2024-05-09T06:20:54.187Z,43.80
2024-05-09T06:23:24.614Z,45.47
2024-05-09T06:25:52.478Z,45.50
2024-05-09T06:28:25.561Z,47.53
2024-05-09T06:30:53.247Z,49.07
2024-05-09T06:33:23.789Z,53.27
2024-05-09T06:35:54.423Z,48.57
2024-05-09T06:38:24.894Z,49.53
2024-05-09T06:40:52.739Z,51.97
2024-05-09T06:43:26.161Z,53.73
2024-05-09T06:45:53.934Z,54.60
2024-05-09T06:48:24.653Z,49.67
2024-05-09T06:50:52.514Z,52.00
2024-05-09T06:53:25.545Z,54.83
2024-05-09T06:55:53.474Z,54.73
2024-05-09T06:58:26.525Z,54.63
2024-05-09T07:00:54.297Z,57.33
2024-05-09T07:03:24.810Z,57.77
2024-05-09T07:05:52.682Z,56.57
2024-05-09T07:08:23.087Z,58.30
2024-05-09T07:10:51.063Z,51.47
2024-05-09T07:13:21.544Z,52.57
2024-05-09T07:15:51.940Z,52.93
2024-05-09T07:18:22.615Z,51.17
2024-05-09T07:20:50.963Z,53.30
2024-05-09T07:23:21.874Z,55.60
2024-05-09T07:25:49.782Z,58.43
2024-05-09T07:28:21.465Z,52.30
2024-05-09T07:30:51.967Z,57.20
2024-05-09T07:33:24.631Z,56.57
2024-05-09T07:35:53.078Z,57.00
2024-05-09T07:38:24.206Z,54.53
2024-05-09T07:40:52.109Z,56.90
2024-05-09T07:43:22.551Z,57.30
2024-05-09T07:45:55.148Z,55.50
2024-05-09T07:50:00.423Z,56.20
2024-05-09T07:53:52.374Z,52.97
2024-05-09T07:56:24.068Z,54.60
2024-05-09T07:58:55.672Z,54.37
2024-05-09T08:01:27.247Z,53.80
2024-05-09T08:03:58.225Z,53.77
2024-05-09T08:06:26.968Z,56.37
2024-05-09T08:09:02.659Z,54.23
2024-05-09T08:11:33.020Z,54.80
2024-05-09T08:14:03.423Z,52.50
2024-05-09T08:16:33.834Z,50.47
2024-05-09T08:19:04.347Z,48.07
2024-05-09T08:21:32.295Z,48.57
2024-05-09T08:24:02.725Z,51.83
2024-05-09T08:26:30.455Z,49.00
2024-05-09T08:29:00.808Z,50.30
2024-05-09T08:31:28.652Z,49.37
2024-05-09T08:34:02.063Z,47.37
2024-05-09T08:36:29.975Z,49.13
2024-05-09T08:39:00.363Z,48.13
2024-05-09T08:41:30.227Z,47.73
2024-05-09T08:44:01.036Z,48.90
2024-05-09T08:46:31.291Z,47.37
2024-05-09T08:49:06.253Z,47.17
2024-05-09T08:51:34.228Z,46.03
2024-05-09T08:54:04.660Z,49.50
2024-05-09T08:56:34.879Z,47.33
2024-05-09T08:59:06.926Z,43.73
2024-05-09T09:01:37.783Z,44.03
2024-05-09T09:04:13.430Z,45.60
2024-05-09T09:06:41.421Z,43.00
2024-05-09T09:09:13.633Z,44.05
2024-05-09T09:11:41.412Z,38.75
2024-05-09T09:14:11.771Z,33.25
2024-05-09T09:16:39.526Z,36.60
2024-05-09T09:19:12.712Z,36.00
2024-05-09T09:21:40.541Z,38.33
2024-05-09T09:24:11.195Z,37.47
2024-05-09T09:26:38.945Z,37.20
2024-05-09T09:29:09.285Z,37.80
2024-05-09T09:31:37.493Z,39.43
2024-05-09T09:34:13.264Z,39.80
2024-05-09T09:36:43.364Z,37.05
2024-05-09T09:39:17.202Z,36.65
2024-05-09T09:41:47.139Z,36.72
2024-05-09T09:44:18.080Z,36.95
2024-05-09T09:46:49.485Z,38.50
2024-05-09T09:49:20.587Z,38.33
2024-05-09T09:51:51.665Z,38.77
2024-05-09T09:54:20.421Z,37.63
2024-05-09T09:56:51.236Z,37.85
2024-05-09T09:59:19.017Z,35.47
2024-05-09T10:01:49.746Z,36.33
2024-05-09T10:04:20.636Z,35.57
2024-05-09T10:06:55.063Z,36.17
2024-05-09T10:09:23.758Z,36.10
2024-05-09T10:12:00.140Z,38.33
2024-05-09T10:14:31.062Z,37.95
2024-05-09T10:17:08.161Z,35.38
2024-05-09T10:19:38.615Z,35.22
2024-05-09T10:22:09.384Z,37.47
2024-05-09T10:24:48.476Z,35.90
2024-05-09T10:27:21.182Z,34.08
2024-05-09T10:29:53.024Z,33.90
2024-05-09T10:32:23.524Z,34.95
2024-05-09T10:35:07.630Z,32.80
2024-05-09T10:37:38.269Z,33.20
2024-05-09T10:40:14.136Z,28.13
2024-05-09T10:42:50.446Z,25.70
2024-05-09T10:45:18.592Z,28.10
2024-05-09T10:47:49.901Z,29.98
2024-05-09T10:50:28.065Z,24.55
2024-05-09T10:52:59.444Z,29.08
2024-05-09T10:55:27.587Z,28.98
2024-05-09T10:58:00.586Z,30.27
2024-05-09T11:00:35.748Z,29.58
2024-05-09T11:03:07.333Z,28.33
2024-05-09T11:05:42.917Z,27.48
2024-05-09T11:08:14.079Z,26.58
2024-05-09T11:10:42.519Z,26.92
2024-05-09T11:13:13.145Z,27.92
2024-05-09T11:15:41.114Z,27.17
2024-05-09T11:18:25.470Z,26.95
2024-05-09T11:20:57.386Z,26.90
2024-05-09T11:23:30.623Z,26.17
2024-05-09T11:25:59.486Z,26.02
2024-05-09T11:28:31.678Z,26.30
2024-05-09T11:31:06.697Z,26.95
2024-05-09T11:33:40.314Z,25.52
2024-05-09T11:36:14.225Z,25.75
2024-05-09T11:38:42.374Z,25.85
2024-05-09T11:41:12.792Z,26.65
2024-05-09T11:43:40.535Z,26.05
2024-05-09T11:46:10.938Z,24.73
2024-05-09T11:48:40.355Z,24.70
2024-05-09T11:51:13.488Z,25.00
2024-05-09T11:53:41.258Z,27.70
2024-05-09T11:56:12.065Z,29.23
2024-05-09T11:58:39.858Z,29.50
2024-05-09T12:01:10.346Z,29.60
2024-05-09T12:03:38.484Z,32.17
2024-05-09T12:06:09.147Z,29.48
2024-05-09T12:08:39.714Z,31.40
2024-05-09T12:11:10.287Z,27.42
2024-05-09T12:13:38.075Z,25.52
2024-05-09T12:16:09.285Z,30.30
2024-05-09T12:18:37.244Z,24.92
2024-05-09T12:21:08.250Z,24.02
2024-05-09T12:23:36.021Z,26.13
2024-05-09T12:26:10.190Z,23.63
2024-05-09T12:28:38.073Z,23.35
2024-05-09T12:31:08.751Z,24.73
2024-05-09T12:33:36.754Z,26.58
2024-05-09T12:36:07.466Z,27.75
2024-05-09T12:38:35.222Z,26.58
2024-05-09T12:41:05.603Z,26.50
2024-05-09T12:43:36.212Z,26.95
2024-05-09T12:46:06.788Z,29.85
2024-05-09T12:48:34.797Z,31.05
2024-05-09T12:51:06.073Z,29.20
2024-05-09T12:53:33.912Z,30.10
2024-05-09T12:56:05.464Z,28.25
2024-05-09T12:58:37.982Z,28.13
2024-05-09T13:01:08.630Z,26.58
2024-05-09T13:03:36.641Z,21.95
2024-05-09T13:06:07.491Z,21.60
2024-05-09T13:08:35.648Z,22.13
2024-05-09T13:11:06.095Z,21.80
2024-05-09T13:13:36.506Z,20.20
2024-05-09T13:16:07.315Z,24.10
2024-05-09T13:18:36.552Z,21.52
2024-05-09T13:21:07.171Z,20.70
2024-05-09T13:23:35.871Z,21.83
2024-05-09T13:26:06.282Z,21.35
2024-05-09T13:28:36.759Z,19.95
2024-05-09T13:31:07.343Z,21.60
2024-05-09T13:33:35.320Z,21.40
2024-05-09T13:36:05.789Z,20.17
2024-05-09T13:38:33.569Z,21.00
2024-05-09T13:41:03.922Z,22.42
2024-05-09T13:43:31.759Z,23.23
2024-05-09T13:46:04.924Z,24.00
2024-05-09T13:48:32.992Z,24.65
2024-05-09T13:51:03.413Z,28.13
2024-05-09T13:53:31.168Z,22.52
2024-05-09T13:56:01.495Z,22.70
2024-05-09T13:58:29.321Z,23.25
2024-05-09T14:00:59.934Z,23.35
2024-05-09T14:03:30.881Z,24.80
2024-05-09T14:06:01.432Z,24.15
2024-05-09T14:08:30.136Z,25.25
2024-05-09T14:11:00.719Z,31.10
2024-05-09T14:13:28.731Z,24.27
2024-05-09T14:15:59.315Z,25.25
2024-05-09T14:18:30.019Z,26.10
2024-05-09T14:21:00.539Z,22.20
2024-05-09T14:23:28.278Z,25.40
2024-05-09T14:25:58.771Z,27.35
2024-05-09T14:28:28.028Z,25.23
2024-05-09T14:31:01.358Z,22.90
2024-05-09T14:33:32.196Z,24.98
2024-05-09T14:36:02.742Z,24.63
2024-05-09T14:38:30.546Z,23.63
2024-05-09T14:41:01.034Z,22.10
2024-05-09T14:43:29.193Z,22.08
2024-05-09T14:45:59.889Z,22.23
2024-05-09T14:48:27.971Z,22.25
2024-05-09T14:51:01.014Z,23.30
2024-05-09T14:53:28.768Z,24.45
2024-05-09T14:55:59.366Z,23.65
2024-05-09T14:58:27.354Z,26.27
2024-05-09T15:00:57.946Z,25.55
2024-05-09T15:03:25.836Z,25.20
2024-05-09T15:05:56.406Z,24.08
2024-05-09T15:08:27.128Z,24.35
2024-05-09T15:10:57.693Z,24.73
2024-05-09T15:13:26.047Z,28.13
2024-05-09T15:15:56.649Z,26.60
2024-05-09T15:18:24.578Z,28.02
2024-05-09T15:20:55.124Z,25.15
2024-05-09T15:23:23.158Z,25.63
2024-05-09T15:25:56.247Z,25.63
2024-05-09T15:28:24.041Z,30.75
2024-05-09T15:30:54.488Z,27.35
2024-05-09T15:33:22.495Z,27.42
2024-05-09T15:35:54.533Z,27.15
2024-05-09T15:38:22.372Z,25.10
2024-05-09T15:40:55.506Z,24.58
2024-05-09T15:43:23.473Z,23.95
2024-05-09T15:45:53.965Z,23.80
2024-05-09T15:48:22.174Z,24.02
2024-05-09T15:50:52.610Z,23.45
2024-05-09T15:53:20.494Z,23.00
2024-05-09T15:55:50.936Z,23.73
2024-05-09T15:58:22.368Z,24.13
2024-05-09T16:00:52.994Z,21.52
2024-05-09T16:03:21.487Z,21.63
2024-05-09T16:05:53.593Z,22.55
2024-05-09T16:08:21.593Z,21.38
2024-05-09T16:10:52.193Z,21.00
2024-05-09T16:13:22.851Z,20.80
2024-05-09T16:15:53.866Z,21.13
2024-05-09T16:18:21.871Z,20.60
2024-05-09T16:20:59.530Z,20.63
2024-05-09T16:23:27.382Z,16.83
2024-05-09T16:25:57.836Z,18.30
2024-05-09T16:28:28.532Z,15.65
2024-05-09T16:31:01.560Z,13.57
2024-05-09T16:33:29.783Z,16.42
2024-05-09T16:36:01.233Z,17.58
2024-05-09T16:38:29.055Z,20.02
2024-05-09T16:40:59.475Z,19.00
2024-05-09T16:43:29.974Z,19.08
2024-05-09T16:46:00.452Z,17.30
2024-05-09T16:48:28.368Z,17.33
2024-05-09T16:50:58.782Z,18.10
2024-05-09T16:53:27.789Z,17.52
2024-05-09T16:55:58.519Z,20.25
2024-05-09T16:58:29.548Z,15.02
2024-05-09T17:01:00.092Z,16.05
2024-05-09T17:03:27.959Z,17.63
2024-05-09T17:05:58.637Z,18.50
2024-05-09T17:08:26.506Z,17.58
2024-05-09T17:10:57.060Z,18.25
2024-05-09T17:13:27.606Z,17.80
2024-05-09T17:16:00.682Z,17.30
2024-05-09T17:18:31.927Z,17.33
2024-05-09T17:21:02.353Z,20.17
2024-05-09T17:23:31.845Z,18.98
2024-05-09T17:26:04.002Z,19.40
2024-05-09T17:28:31.835Z,17.95
2024-05-09T17:31:04.916Z,16.20
2024-05-09T17:33:32.728Z,17.10
2024-05-09T17:36:03.260Z,16.25
2024-05-09T17:38:31.255Z,15.10
2024-05-09T17:41:01.698Z,14.85
2024-05-09T17:43:43.513Z,14.75
2024-05-09T17:46:11.335Z,12.75
2024-05-09T17:48:42.305Z,15.05
2024-05-09T17:51:10.109Z,14.50
2024-05-09T17:53:40.437Z,15.65
2024-05-09T17:56:08.990Z,15.60
2024-05-09T17:58:39.379Z,14.85
2024-05-09T18:01:09.987Z,14.45
2024-05-09T18:03:40.746Z,14.10
2024-05-09T18:06:09.369Z,14.95
2024-05-09T18:08:39.679Z,15.95
2024-05-09T18:11:07.556Z,14.68
2024-05-09T18:13:37.929Z,15.02
2024-05-09T18:16:06.358Z,17.20
2024-05-09T18:18:39.680Z,15.32
2024-05-09T18:21:07.413Z,15.98
2024-05-09T18:23:38.378Z,14.98
2024-05-09T18:26:06.553Z,14.50
2024-05-09T18:28:36.893Z,13.43
2024-05-09T18:31:04.778Z,12.77
2024-05-09T18:33:35.337Z,13.45
2024-05-09T18:36:06.227Z,12.85
2024-05-09T18:38:36.755Z,13.85
2024-05-09T18:41:04.837Z,15.18
2024-05-09T18:43:42.192Z,16.40
2024-05-09T18:46:13.030Z,14.68
2024-05-09T18:48:43.725Z,15.10
2024-05-09T18:51:14.770Z,15.88
2024-05-09T18:53:45.299Z,15.63
2024-05-09T18:56:13.124Z,13.98
2024-05-09T18:58:43.475Z,12.30
2024-05-09T19:01:12.039Z,12.52
2024-05-09T19:03:42.915Z,16.50
2024-05-09T19:06:13.842Z,16.58
2024-05-09T19:08:44.207Z,15.40
2024-05-09T19:11:12.079Z,15.57
2024-05-09T19:13:42.406Z,15.68
2024-05-09T19:16:10.278Z,16.27
2024-05-09T19:18:40.861Z,16.65
2024-05-09T19:21:08.752Z,17.15
2024-05-09T19:23:47.179Z,15.85
2024-05-09T19:26:19.739Z,16.48
2024-05-09T19:28:50.102Z,17.35
2024-05-09T19:31:17.816Z,18.20
2024-05-09T19:33:48.331Z,18.15
2024-05-09T19:36:18.453Z,18.70
2024-05-09T19:38:51.672Z,17.98
2024-05-09T19:41:19.408Z,18.33
2024-05-09T19:43:49.826Z,18.58
2024-05-09T19:46:18.315Z,20.73
2024-05-09T19:48:49.247Z,19.23
2024-05-09T19:51:17.103Z,19.63
2024-05-09T19:53:47.443Z,20.05
2024-05-09T19:56:17.934Z,20.45
2024-05-09T19:58:48.295Z,20.80
2024-05-09T20:01:16.345Z,20.67
2024-05-09T20:03:47.122Z,20.08
2024-05-09T20:06:15.008Z,20.00
2024-05-09T20:08:45.321Z,19.90
2024-05-09T20:11:14.332Z,19.63
2024-05-09T20:13:47.356Z,19.77
2024-05-09T20:16:15.242Z,19.50
2024-05-09T20:18:45.675Z,19.13
2024-05-09T20:21:13.471Z,18.27
2024-05-09T20:23:43.784Z,19.27
2024-05-09T20:26:11.467Z,19.10
2024-05-09T20:28:41.798Z,19.30
2024-05-09T20:31:19.044Z,18.05
2024-05-09T20:33:49.611Z,19.10
2024-05-09T20:36:17.434Z,19.25
2024-05-09T20:38:47.794Z,20.23
2024-05-09T20:41:15.516Z,22.60
2024-05-09T20:43:46.082Z,23.92
2024-05-09T20:46:18.159Z,25.70
2024-05-09T20:48:48.716Z,25.38
2024-05-09T20:51:16.475Z,25.38
2024-05-09T20:53:46.912Z,28.58
2024-05-09T20:56:14.590Z,27.45
2024-05-09T20:58:44.940Z,27.90
2024-05-09T21:01:12.841Z,28.90
2024-05-09T21:03:47.596Z,28.48
2024-05-09T21:06:15.575Z,29.75
2024-05-09T21:08:45.904Z,27.83
2024-05-09T21:11:13.699Z,30.00
2024-05-09T21:13:44.016Z,30.20
2024-05-09T21:16:11.850Z,30.15
2024-05-09T21:18:42.283Z,29.50
2024-05-09T21:21:12.844Z,31.23
2024-05-09T21:23:43.442Z,32.17
2024-05-09T21:26:11.850Z,34.80
2024-05-09T21:28:42.583Z,36.60
2024-05-09T21:31:10.442Z,35.60
2024-05-09T21:33:41.009Z,35.42
2024-05-09T21:36:12.458Z,36.60
2024-05-09T21:38:43.761Z,37.88
2024-05-09T21:41:11.437Z,39.75
2024-05-09T21:43:41.941Z,38.55
2024-05-09T21:46:09.670Z,39.42
2024-05-09T21:48:40.156Z,40.65
2024-05-09T21:51:16.430Z,38.53
2024-05-09T21:53:46.776Z,39.80
2024-05-09T21:56:14.498Z,40.50
2024-05-09T21:58:44.857Z,43.57
2024-05-09T22:01:12.703Z,40.37
2024-05-09T22:03:43.546Z,42.33
2024-05-09T22:06:11.437Z,42.33
2024-05-09T22:08:45.465Z,40.95
2024-05-09T22:11:13.369Z,42.88
2024-05-09T22:13:43.757Z,40.90
2024-05-09T22:16:12.115Z,42.53
2024-05-09T22:18:42.684Z,43.72
2024-05-09T22:21:10.678Z,45.38
2024-05-09T22:23:43.653Z,45.23
2024-05-09T22:26:11.363Z,45.42
2024-05-09T22:28:41.722Z,45.00
2024-05-09T22:31:09.811Z,47.90
2024-05-09T22:33:41.437Z,49.15
2024-05-09T22:36:10.350Z,48.53
2024-05-09T22:38:43.398Z,50.63
2024-05-09T22:41:11.121Z,49.60
2024-05-09T22:43:41.649Z,49.83
2024-05-09T22:46:09.519Z,50.17
2024-05-09T22:48:40.057Z,52.55
2024-05-09T22:51:07.797Z,51.28
2024-05-09T22:53:38.102Z,49.15
2024-05-09T22:56:08.950Z,52.03
2024-05-09T22:58:39.220Z,51.60
2024-05-09T23:01:07.084Z,50.17
2024-05-09T23:03:37.608Z,50.85
2024-05-09T23:06:07.195Z,52.00
2024-05-09T23:08:37.576Z,52.67
2024-05-09T23:11:08.230Z,50.23
2024-05-09T23:13:38.706Z,51.27
2024-05-09T23:16:06.916Z,52.13
2024-05-09T23:18:37.425Z,51.70
2024-05-09T23:21:05.864Z,50.43
2024-05-09T23:23:36.354Z,49.35
2024-05-09T23:26:04.112Z,52.35
2024-05-09T23:28:37.129Z,52.57
2024-05-09T23:31:05.914Z,52.43
2024-05-09T23:33:36.348Z,50.63
2024-05-09T23:36:07.993Z,49.13
2024-05-09T23:38:35.750Z,48.58
2024-05-09T23:41:06.106Z,50.85
2024-05-09T23:43:37.485Z,50.93
2024-05-09T23:46:08.407Z,51.40
2024-05-09T23:48:36.173Z,51.23
2024-05-09T23:51:06.722Z,52.37
2024-05-09T23:53:34.415Z,51.30
2024-05-09T23:56:04.727Z,51.97
2024-05-09T23:58:32.520Z,49.83
